createdAt,value
2023-04-24T00:00:33.842Z,25.25
2023-04-24T00:03:01.637Z,23.25
2023-04-24T00:05:29.242Z,24.00
2023-04-24T00:07:56.805Z,22.00
2023-04-24T00:10:25.013Z,21.75
2023-04-24T00:12:52.405Z,23.50
2023-04-24T00:15:19.839Z,23.50
2023-04-24T00:17:47.360Z,25.00
2023-04-24T00:20:15.877Z,26.00
2023-04-24T00:22:43.227Z,31.00
2023-04-24T00:25:10.744Z,33.00
2023-04-24T00:27:39.848Z,31.25
2023-04-24T00:30:07.864Z,28.75
2023-04-24T00:32:35.462Z,31.25
2023-04-24T00:35:03.229Z,23.75
2023-04-24T00:37:30.849Z,25.25
2023-04-24T00:39:58.360Z,25.75
2023-04-24T00:42:26.495Z,26.50
2023-04-24T00:44:54.719Z,22.50
2023-04-24T00:47:23.074Z,25.50
2023-04-24T00:49:50.536Z,24.25
2023-04-24T00:52:18.853Z,23.75
2023-04-24T00:54:46.476Z,21.75
2023-04-24T00:57:16.352Z,23.00
2023-04-24T00:59:45.028Z,22.00
2023-04-24T01:02:13.344Z,22.75
2023-04-24T01:04:41.527Z,22.75
2023-04-24T01:07:12.432Z,21.00
2023-04-24T01:09:44.761Z,22.00
2023-04-24T01:12:12.571Z,22.00
2023-04-24T01:14:40.591Z,22.75
2023-04-24T01:17:08.458Z,23.50
2023-04-24T01:19:35.920Z,23.75
2023-04-24T01:22:04.651Z,30.00
2023-04-24T01:24:32.151Z,25.00
2023-04-24T01:26:59.878Z,22.25
2023-04-24T01:29:27.328Z,20.50
2023-04-24T01:31:56.175Z,22.50
2023-04-24T01:34:23.935Z,18.75
2023-04-24T01:36:51.846Z,22.00
2023-04-24T01:39:21.622Z,24.25
2023-04-24T01:41:50.713Z,19.25
2023-04-24T01:44:19.122Z,22.25
2023-04-24T01:46:46.713Z,22.50
2023-04-24T01:49:14.171Z,21.50
2023-04-24T01:51:41.747Z,22.50
2023-04-24T01:54:09.206Z,22.50
2023-04-24T01:56:41.745Z,22.50
2023-04-24T01:59:11.552Z,20.75
2023-04-24T02:01:40.268Z,22.25
2023-04-24T02:04:09.157Z,19.75
2023-04-24T02:06:36.855Z,21.75
2023-04-24T02:09:04.577Z,21.75
2023-04-24T02:11:32.038Z,19.50
2023-04-24T02:13:59.686Z,23.75
2023-04-24T02:16:27.165Z,20.50
2023-04-24T02:18:54.560Z,22.25
2023-04-24T02:21:21.986Z,23.75
2023-04-24T02:23:49.494Z,24.50
2023-04-24T02:26:17.466Z,22.75
2023-04-24T02:28:45.018Z,24.25
2023-04-24T02:31:12.392Z,24.00
2023-04-24T02:33:39.849Z,20.75
2023-04-24T02:36:07.410Z,21.75
2023-04-24T02:38:34.938Z,21.50
2023-04-24T02:41:03.291Z,24.25
2023-04-24T02:43:31.354Z,14.00
2023-04-24T02:45:58.755Z,20.50
2023-04-24T02:48:26.169Z,20.75
2023-04-24T02:50:54.120Z,22.75
2023-04-24T02:53:21.669Z,24.00
2023-04-24T02:55:49.036Z,22.25
2023-04-24T02:58:16.861Z,19.75
2023-04-24T03:00:44.678Z,23.25
2023-04-24T03:03:12.303Z,22.00
2023-04-24T03:05:40.036Z,25.00
2023-04-24T03:08:07.571Z,22.50
2023-04-24T03:10:35.289Z,18.00
2023-04-24T03:13:02.708Z,21.75
2023-04-24T03:15:30.377Z,24.00
2023-04-24T03:17:57.847Z,23.00
2023-04-24T03:20:25.424Z,12.50
2023-04-24T03:22:52.846Z,21.00
2023-04-24T03:25:20.280Z,21.50
2023-04-24T03:27:48.117Z,22.00
2023-04-24T03:30:15.633Z,21.00
2023-04-24T03:32:43.699Z,23.75
2023-04-24T03:35:11.194Z,24.25
2023-04-24T03:37:38.557Z,22.00
2023-04-24T03:40:07.295Z,22.25
2023-04-24T03:42:34.729Z,25.25
2023-04-24T03:45:02.144Z,25.50
2023-04-24T03:47:29.779Z,21.75
2023-04-24T03:49:57.187Z,23.00
2023-04-24T03:52:24.627Z,21.75
2023-04-24T03:54:51.962Z,22.50
2023-04-24T03:57:19.398Z,24.00
2023-04-24T03:59:47.063Z,23.75
2023-04-24T04:02:14.512Z,20.50
2023-04-24T04:04:42.141Z,26.50
2023-04-24T04:07:09.719Z,22.75
2023-04-24T04:09:37.232Z,23.25
2023-04-24T04:12:04.609Z,19.00
2023-04-24T04:14:32.188Z,22.00
2023-04-24T04:16:59.750Z,21.75
2023-04-24T04:19:27.727Z,21.00
2023-04-24T04:21:57.256Z,19.50
2023-04-24T04:24:25.282Z,22.25
2023-04-24T04:26:53.336Z,23.00
2023-04-24T04:29:20.809Z,22.25
2023-04-24T04:31:48.168Z,23.75
2023-04-24T04:34:15.671Z,17.00
2023-04-24T04:36:44.005Z,19.75
2023-04-24T04:39:11.355Z,25.00
2023-04-24T04:41:41.556Z,26.25
2023-04-24T04:44:09.790Z,30.00
2023-04-24T04:46:38.492Z,30.00
2023-04-24T04:49:05.943Z,30.00
2023-04-24T04:51:33.537Z,31.00
2023-04-24T04:54:01.212Z,30.00
2023-04-24T04:56:28.651Z,31.75
2023-04-24T04:58:56.033Z,29.75
2023-04-24T05:01:24.280Z,33.00
2023-04-24T05:03:51.822Z,36.50
2023-04-24T05:06:21.046Z,35.00
2023-04-24T05:08:49.929Z,35.00
2023-04-24T05:11:17.316Z,33.00
2023-04-24T05:13:44.732Z,33.25
2023-04-24T05:16:12.093Z,36.50
2023-04-24T05:18:39.484Z,32.25
2023-04-24T05:21:07.151Z,32.25
2023-04-24T05:23:34.872Z,32.00
2023-04-24T05:26:02.729Z,30.75
2023-04-24T05:28:30.242Z,34.00
2023-04-24T05:30:57.710Z,31.25
2023-04-24T05:33:25.091Z,34.75
2023-04-24T05:35:52.616Z,34.00
2023-04-24T05:38:20.717Z,36.00
2023-04-24T05:40:48.218Z,34.25
2023-04-24T05:43:15.850Z,36.75
2023-04-24T05:45:43.269Z,27.00
2023-04-24T05:48:10.700Z,26.25
2023-04-24T05:50:38.554Z,24.00
2023-04-24T05:53:08.045Z,21.00
2023-04-24T05:55:35.472Z,27.75
2023-04-24T05:58:03.005Z,24.25
2023-04-24T06:00:32.570Z,21.67
2023-04-24T06:03:02.001Z,22.25
2023-04-24T06:05:29.885Z,22.50
2023-04-24T06:07:57.625Z,23.50
2023-04-24T06:10:25.066Z,25.75
2023-04-24T06:12:52.701Z,26.75
2023-04-24T06:15:20.721Z,28.75
2023-04-24T06:17:48.664Z,28.50
2023-04-24T06:20:16.245Z,31.25
2023-04-24T06:22:43.705Z,32.00
2023-04-24T06:25:11.129Z,31.00
2023-04-24T06:27:39.030Z,32.50
2023-04-24T06:30:07.474Z,35.75
2023-04-24T06:32:35.029Z,36.25
2023-04-24T06:35:02.499Z,33.00
2023-04-24T06:37:30.214Z,35.00
2023-04-24T06:39:57.665Z,32.50
2023-04-24T06:42:25.857Z,30.50
2023-04-24T06:44:53.294Z,28.75
2023-04-24T06:47:20.791Z,26.25
2023-04-24T06:49:48.197Z,32.00
2023-04-24T06:52:15.770Z,26.00
2023-04-24T06:54:43.277Z,24.00
2023-04-24T06:57:11.594Z,32.25
2023-04-24T06:59:39.324Z,30.00
2023-04-24T07:02:07.222Z,28.33
2023-04-24T07:04:35.483Z,27.00
2023-04-24T07:07:03.475Z,24.67
2023-04-24T07:09:31.179Z,27.00
2023-04-24T07:11:58.542Z,27.00
2023-04-24T07:14:25.929Z,24.00
2023-04-24T07:16:53.358Z,24.25
2023-04-24T07:19:20.724Z,27.00
2023-04-24T07:21:48.043Z,28.67
2023-04-24T07:24:15.619Z,28.00
2023-04-24T07:26:43.130Z,27.33
2023-04-24T07:29:10.874Z,24.75
2023-04-24T07:31:38.337Z,27.00
2023-04-24T07:34:05.753Z,26.33
2023-04-24T07:36:33.390Z,22.75
2023-04-24T07:39:00.997Z,22.75
2023-04-24T07:41:29.208Z,19.75
2023-04-24T07:43:56.665Z,23.00
2023-04-24T07:46:24.631Z,34.00
2023-04-24T07:49:05.351Z,29.00
2023-04-24T07:51:40.199Z,29.50
2023-04-24T07:54:07.547Z,30.50
2023-04-24T07:56:35.677Z,38.25
2023-04-24T07:59:03.039Z,45.00
2023-04-24T08:01:31.654Z,39.25
2023-04-24T08:03:59.190Z,40.00
2023-04-24T08:06:31.337Z,42.00
2023-04-24T08:08:59.515Z,44.75
2023-04-24T08:11:27.503Z,43.25
2023-04-24T08:13:56.108Z,42.00
2023-04-24T08:16:25.306Z,36.00
2023-04-24T08:18:54.206Z,39.00
2023-04-24T08:21:21.885Z,35.75
2023-04-24T08:23:49.258Z,30.50
2023-04-24T08:26:16.705Z,29.25
2023-04-24T08:28:44.228Z,36.00
2023-04-24T08:31:11.694Z,29.33
2023-04-24T08:33:39.130Z,28.00
2023-04-24T08:36:07.168Z,30.00
2023-04-24T08:38:35.120Z,29.00
2023-04-24T08:41:03.012Z,28.00
2023-04-24T08:43:34.117Z,24.50
2023-04-24T08:46:02.498Z,29.00
2023-04-24T08:48:32.783Z,28.75
2023-04-24T08:51:00.637Z,23.75
2023-04-24T08:53:28.312Z,27.75
2023-04-24T08:55:57.873Z,35.00
2023-04-24T08:58:29.396Z,26.25
2023-04-24T09:00:57.253Z,26.00
2023-04-24T09:03:25.405Z,25.75
2023-04-24T09:05:53.832Z,25.25
2023-04-24T09:08:24.659Z,29.50
2023-04-24T09:10:52.316Z,30.00
2023-04-24T09:13:21.454Z,30.00
2023-04-24T09:15:48.974Z,29.00
2023-04-24T09:18:18.725Z,24.50
2023-04-24T09:21:04.896Z,20.25
2023-04-24T09:23:33.073Z,26.00
2023-04-24T09:26:03.085Z,27.00
2023-04-24T09:28:37.233Z,22.50
2023-04-24T09:31:15.092Z,20.50
2023-04-24T09:33:54.888Z,17.25
2023-04-24T09:36:30.824Z,13.25
2023-04-24T09:39:03.075Z,11.00
2023-04-24T09:41:30.817Z,15.75
2023-04-24T09:44:11.963Z,17.75
2023-04-24T09:46:39.597Z,6.75
2023-04-24T09:49:14.666Z,12.25
2023-04-24T09:51:42.146Z,15.00
2023-04-24T09:54:22.572Z,17.50
2023-04-24T09:56:51.765Z,12.00
2023-04-24T09:59:20.611Z,6.80
2023-04-24T10:01:50.459Z,5.60
2023-04-24T10:04:23.985Z,6.80
2023-04-24T10:06:54.086Z,8.60
2023-04-24T10:09:23.814Z,6.60
2023-04-24T10:11:54.478Z,10.00
2023-04-24T10:14:25.086Z,10.60
2023-04-24T10:16:56.159Z,9.80
2023-04-24T10:19:27.276Z,4.60
2023-04-24T10:21:56.867Z,6.20
2023-04-24T10:24:24.346Z,4.00
2023-04-24T10:26:51.812Z,8.00
2023-04-24T10:29:20.850Z,4.40
2023-04-24T10:31:48.708Z,6.20
2023-04-24T10:34:19.389Z,5.00
2023-04-24T10:36:51.967Z,7.80
2023-04-24T10:39:27.309Z,9.80
2023-04-24T10:41:59.518Z,9.00
2023-04-24T10:44:37.703Z,12.00
2023-04-24T10:47:05.808Z,12.20
2023-04-24T10:49:33.451Z,8.40
2023-04-24T10:52:03.479Z,9.00
2023-04-24T10:54:35.193Z,7.20
2023-04-24T10:57:23.952Z,7.20
2023-04-24T11:00:12.702Z,7.00
2023-04-24T11:02:44.809Z,6.80
2023-04-24T11:05:12.533Z,7.20
2023-04-24T11:08:15.082Z,12.00
2023-04-24T11:10:47.863Z,7.00
2023-04-24T11:13:22.502Z,7.00
2023-04-24T11:16:31.609Z,6.60
2023-04-24T11:19:03.444Z,12.60
2023-04-24T11:21:42.423Z,12.80
2023-04-24T11:24:48.499Z,6.80
2023-04-24T11:27:21.532Z,5.00
2023-04-24T11:29:58.092Z,6.00
2023-04-24T11:32:31.956Z,10.40
2023-04-24T11:35:14.443Z,12.60
2023-04-24T11:37:44.665Z,14.00
2023-04-24T11:40:14.588Z,14.00
2023-04-24T11:42:47.370Z,12.60
2023-04-24T11:45:19.976Z,13.40
2023-04-24T11:47:47.347Z,10.40
2023-04-24T11:50:16.746Z,7.00
2023-04-24T11:52:46.769Z,9.20
2023-04-24T11:55:17.185Z,11.60
2023-04-24T11:57:54.100Z,9.80
2023-04-24T12:00:24.487Z,9.00
2023-04-24T12:02:52.825Z,10.00
2023-04-24T12:05:25.461Z,10.40
2023-04-24T12:07:53.831Z,15.40
2023-04-24T12:10:23.007Z,9.60
2023-04-24T12:12:52.492Z,10.20
2023-04-24T12:15:21.886Z,8.40
2023-04-24T12:17:51.636Z,6.40
2023-04-24T12:20:24.489Z,5.80
2023-04-24T12:22:57.178Z,7.00
2023-04-24T12:25:26.991Z,6.80
2023-04-24T12:28:14.170Z,8.20
2023-04-24T12:30:45.879Z,9.00
2023-04-24T12:33:13.750Z,8.20
2023-04-24T12:35:42.115Z,10.40
2023-04-24T12:38:11.757Z,13.20
2023-04-24T12:40:39.337Z,14.80
2023-04-24T12:43:20.422Z,10.80
2023-04-24T12:45:50.683Z,12.80
2023-04-24T12:48:18.256Z,8.00
2023-04-24T12:50:47.331Z,5.60
2023-04-24T12:53:15.705Z,6.00
2023-04-24T12:55:43.279Z,6.80
2023-04-24T12:58:11.678Z,7.00
2023-04-24T13:00:40.004Z,9.20
2023-04-24T13:03:07.583Z,8.20
2023-04-24T13:05:35.296Z,9.40
2023-04-24T13:08:02.664Z,10.60
2023-04-24T13:10:30.400Z,8.80
2023-04-24T13:12:58.481Z,8.60
2023-04-24T13:15:25.904Z,9.00
2023-04-24T13:17:53.921Z,13.00
2023-04-24T13:20:21.439Z,10.80
2023-04-24T13:22:48.866Z,10.40
2023-04-24T13:25:18.141Z,8.00
2023-04-24T13:27:45.754Z,8.00
2023-04-24T13:30:13.924Z,12.20
2023-04-24T13:32:41.899Z,10.00
2023-04-24T13:35:09.762Z,8.00
2023-04-24T13:37:37.272Z,7.00
2023-04-24T13:40:07.238Z,8.00
2023-04-24T13:42:35.384Z,8.40
2023-04-24T13:45:13.912Z,10.00
2023-04-24T13:47:45.584Z,8.20
2023-04-24T13:50:13.061Z,11.40
2023-04-24T13:52:40.651Z,9.00
2023-04-24T13:55:08.332Z,9.40
2023-04-24T13:57:36.353Z,9.60
2023-04-24T14:00:05.276Z,10.60
2023-04-24T14:02:33.589Z,12.20
2023-04-24T14:05:01.519Z,11.00
2023-04-24T14:07:29.570Z,9.20
2023-04-24T14:09:57.932Z,12.00
2023-04-24T14:12:25.370Z,11.80
2023-04-24T14:14:52.757Z,14.20
2023-04-24T14:17:20.107Z,13.20
2023-04-24T14:19:47.869Z,12.80
2023-04-24T14:22:15.267Z,11.60
2023-04-24T14:24:42.707Z,11.60
2023-04-24T14:27:10.245Z,9.80
2023-04-24T14:29:37.658Z,8.80
2023-04-24T14:32:05.089Z,10.80
2023-04-24T14:34:32.972Z,9.60
2023-04-24T14:37:00.380Z,10.20
2023-04-24T14:39:27.757Z,10.00
2023-04-24T14:41:55.264Z,9.00
2023-04-24T14:44:22.849Z,10.20
2023-04-24T14:46:51.039Z,10.00
2023-04-24T14:49:18.460Z,10.00
2023-04-24T14:51:45.937Z,7.80
2023-04-24T14:54:13.529Z,8.40
2023-04-24T14:56:42.032Z,7.60
2023-04-24T14:59:09.579Z,10.00
2023-04-24T15:01:37.000Z,9.00
2023-04-24T15:04:04.681Z,8.60
2023-04-24T15:06:33.000Z,10.00
2023-04-24T15:09:02.023Z,12.40
2023-04-24T15:11:30.069Z,10.60
2023-04-24T15:13:58.140Z,15.00
2023-04-24T15:16:26.033Z,9.60
2023-04-24T15:18:53.545Z,7.20
2023-04-24T15:21:21.225Z,9.20
2023-04-24T15:23:48.736Z,8.80
2023-04-24T15:26:16.476Z,6.00
2023-04-24T15:28:43.975Z,6.60
2023-04-24T15:31:11.382Z,7.00
2023-04-24T15:33:38.957Z,5.00
2023-04-24T15:36:06.675Z,4.20
2023-04-24T15:38:34.154Z,19.00
2023-04-24T15:41:01.593Z,6.80
2023-04-24T15:43:32.137Z,3.60
2023-04-24T15:45:59.692Z,2.20
2023-04-24T15:48:28.620Z,3.00
2023-04-24T15:50:56.060Z,3.00
2023-04-24T15:53:23.794Z,3.20
2023-04-24T15:55:52.426Z,5.80
2023-04-24T15:58:22.132Z,5.00
2023-04-24T16:00:50.002Z,7.40
2023-04-24T16:03:17.620Z,6.60
2023-04-24T16:05:45.297Z,5.00
2023-04-24T16:08:14.307Z,3.40
2023-04-24T16:10:42.357Z,3.20
2023-04-24T16:13:09.795Z,0.00
2023-04-24T16:15:37.521Z,3.40
2023-04-24T16:18:05.055Z,3.25
2023-04-24T16:20:32.658Z,4.40
2023-04-24T16:23:00.052Z,3.25
2023-04-24T16:25:28.658Z,2.75
2023-04-24T16:27:57.163Z,4.75
2023-04-24T16:30:24.701Z,5.00
2023-04-24T16:32:52.191Z,4.00
2023-04-24T16:35:19.596Z,5.25
2023-04-24T16:37:47.011Z,4.00
2023-04-24T16:40:14.821Z,3.50
2023-04-24T16:42:42.251Z,3.50
2023-04-24T16:45:10.387Z,2.50
2023-04-24T16:47:38.189Z,0.00
2023-04-24T16:50:06.609Z,3.75
2023-04-24T16:52:34.046Z,4.00
2023-04-24T16:55:01.485Z,3.75
2023-04-24T16:57:29.346Z,2.75
2023-04-24T16:59:56.773Z,1.50
2023-04-24T17:02:24.246Z,3.50
2023-04-24T17:04:51.663Z,4.75
2023-04-24T17:07:19.259Z,2.25
2023-04-24T17:09:47.187Z,2.00
2023-04-24T17:12:15.699Z,3.75
2023-04-24T17:14:43.137Z,2.75
2023-04-24T17:17:11.143Z,2.75
2023-04-24T17:19:38.699Z,4.75
2023-04-24T17:22:06.621Z,3.75
2023-04-24T17:24:34.486Z,2.00
2023-04-24T17:27:14.010Z,6.00
2023-04-24T17:29:42.577Z,2.75
2023-04-24T17:32:10.169Z,5.00
2023-04-24T17:34:37.634Z,4.50
2023-04-24T17:37:05.106Z,4.50
2023-04-24T17:39:32.650Z,5.00
2023-04-24T17:42:00.204Z,3.75
2023-04-24T17:44:27.744Z,5.00
2023-04-24T17:46:55.145Z,5.75
2023-04-24T17:49:23.176Z,3.25
2023-04-24T17:51:50.661Z,3.50
2023-04-24T17:54:18.383Z,2.50
2023-04-24T17:56:46.525Z,5.75
2023-04-24T17:59:14.071Z,4.75
2023-04-24T18:01:41.596Z,5.00
2023-04-24T18:04:09.382Z,6.00
2023-04-24T18:06:37.163Z,0.00
2023-04-24T18:09:04.613Z,4.50
2023-04-24T18:11:32.417Z,7.50
2023-04-24T18:14:01.717Z,13.25
2023-04-24T18:16:29.421Z,12.25
2023-04-24T18:18:56.866Z,12.00
2023-04-24T18:21:25.195Z,11.50
2023-04-24T18:23:52.904Z,12.00
2023-04-24T18:26:20.745Z,9.00
2023-04-24T18:28:48.982Z,9.50
2023-04-24T18:31:16.874Z,9.00
2023-04-24T18:33:44.489Z,10.00
2023-04-24T18:36:12.204Z,9.25
2023-04-24T18:38:39.920Z,9.25
2023-04-24T18:41:07.432Z,8.75
2023-04-24T18:43:35.067Z,7.50
2023-04-24T18:46:02.520Z,7.25
2023-04-24T18:48:31.305Z,7.25
2023-04-24T18:50:58.818Z,9.25
2023-04-24T18:53:26.376Z,8.00
2023-04-24T18:55:53.877Z,9.25
2023-04-24T18:58:21.298Z,10.00
2023-04-24T19:00:48.930Z,8.75
2023-04-24T19:03:16.969Z,9.75
2023-04-24T19:05:44.571Z,9.25
2023-04-24T19:08:12.026Z,9.75
2023-04-24T19:10:39.678Z,14.25
2023-04-24T19:13:07.290Z,11.00
2023-04-24T19:15:35.313Z,9.50
2023-04-24T19:18:02.940Z,9.00
2023-04-24T19:20:31.678Z,5.25
2023-04-24T19:22:59.323Z,9.75
2023-04-24T19:25:26.758Z,11.50
2023-04-24T19:27:54.895Z,12.50
2023-04-24T19:30:22.481Z,11.00
2023-04-24T19:32:50.171Z,9.50
2023-04-24T19:35:17.790Z,11.75
2023-04-24T19:37:45.352Z,9.75
2023-04-24T19:40:13.063Z,11.75
2023-04-24T19:42:44.293Z,11.00
2023-04-24T19:45:13.178Z,10.50
2023-04-24T19:47:41.763Z,11.00
2023-04-24T19:50:10.340Z,10.00
2023-04-24T19:52:38.526Z,6.75
2023-04-24T19:55:06.330Z,9.25
2023-04-24T19:57:34.153Z,11.25
2023-04-24T20:00:01.536Z,11.33
2023-04-24T20:02:29.411Z,12.50
2023-04-24T20:04:57.329Z,9.00
2023-04-24T20:07:25.887Z,11.00
2023-04-24T20:09:53.474Z,10.75
2023-04-24T20:12:20.977Z,9.50
2023-04-24T20:14:48.626Z,10.00
2023-04-24T20:17:18.795Z,13.00
2023-04-24T20:19:46.574Z,15.00
2023-04-24T20:22:14.125Z,14.00
2023-04-24T20:24:41.563Z,12.25
2023-04-24T20:27:08.957Z,13.67
2023-04-24T20:29:36.335Z,16.25
2023-04-24T20:32:03.906Z,17.33
2023-04-24T20:34:31.719Z,17.00
2023-04-24T20:36:59.353Z,13.33
2023-04-24T20:39:26.825Z,15.00
2023-04-24T20:41:54.371Z,17.00
2023-04-24T20:44:22.488Z,20.00
2023-04-24T20:46:50.017Z,21.33
2023-04-24T20:49:17.400Z,20.00
2023-04-24T20:51:44.753Z,18.67
2023-04-24T20:54:12.097Z,15.00
2023-04-24T20:56:39.658Z,18.00
2023-04-24T20:59:07.305Z,13.33
2023-04-24T21:01:34.761Z,15.33
2023-04-24T21:04:02.154Z,16.67
2023-04-24T21:06:29.866Z,15.00
2023-04-24T21:08:57.585Z,14.67
2023-04-24T21:11:24.924Z,16.33
2023-04-24T21:13:52.303Z,18.33
2023-04-24T21:16:19.971Z,18.00
2023-04-24T21:18:47.523Z,22.50
2023-04-24T21:21:15.139Z,26.00
2023-04-24T21:23:42.808Z,24.00
2023-04-24T21:26:11.038Z,22.50
2023-04-24T21:28:38.585Z,19.50
2023-04-24T21:31:06.008Z,21.25
2023-04-24T21:33:34.216Z,22.50
2023-04-24T21:36:01.594Z,19.50
2023-04-24T21:38:29.594Z,22.00
2023-04-24T21:40:56.988Z,20.00
2023-04-24T21:43:30.773Z,22.00
2023-04-24T21:46:05.105Z,12.00
2023-04-24T21:48:32.741Z,22.50
2023-04-24T21:51:00.207Z,22.00
2023-04-24T21:53:29.605Z,19.00
2023-04-24T21:55:57.290Z,22.00
2023-04-24T21:58:25.108Z,22.00
2023-04-24T22:00:52.945Z,20.00
2023-04-24T22:03:20.651Z,21.00
2023-04-24T22:05:48.166Z,20.33
2023-04-24T22:08:15.648Z,20.00
2023-04-24T22:10:42.991Z,16.00
2023-04-24T22:13:10.392Z,15.00
2023-04-24T22:15:37.806Z,13.33
2023-04-24T22:18:06.765Z,14.67
2023-04-24T22:20:34.611Z,11.67
2023-04-24T22:23:02.171Z,12.00
2023-04-24T22:25:29.782Z,13.00
2023-04-24T22:27:57.334Z,10.67
2023-04-24T22:30:24.811Z,12.00
2023-04-24T22:32:52.429Z,10.00
2023-04-24T22:35:20.441Z,11.75
2023-04-24T22:37:53.861Z,10.33
2023-04-24T22:40:21.458Z,10.67
2023-04-24T22:42:48.898Z,7.25
2023-04-24T22:45:16.745Z,8.50
2023-04-24T22:47:44.264Z,9.25
2023-04-24T22:50:11.742Z,9.00
2023-04-24T22:52:41.757Z,9.00
2023-04-24T22:55:09.825Z,9.00
2023-04-24T22:57:37.483Z,6.50
2023-04-24T23:00:11.358Z,6.00
2023-04-24T23:02:40.652Z,7.00
2023-04-24T23:05:09.423Z,7.25
2023-04-24T23:07:38.447Z,7.50
2023-04-24T23:10:06.783Z,5.75
2023-04-24T23:12:34.658Z,6.00
2023-04-24T23:15:02.034Z,8.00
2023-04-24T23:17:29.778Z,6.00
2023-04-24T23:19:57.191Z,7.75
2023-04-24T23:22:24.751Z,6.00
2023-04-24T23:24:52.155Z,7.50
2023-04-24T23:27:19.471Z,5.00
2023-04-24T23:29:46.819Z,6.50
2023-04-24T23:32:14.232Z,7.25
2023-04-24T23:34:41.706Z,6.75
2023-04-24T23:37:09.257Z,7.00
2023-04-24T23:39:36.810Z,6.00
2023-04-24T23:42:04.578Z,6.25
2023-04-24T23:44:31.968Z,5.00
2023-04-24T23:46:59.836Z,5.50
2023-04-24T23:49:27.465Z,5.50
2023-04-24T23:51:56.126Z,7.00
2023-04-24T23:54:23.669Z,6.00
2023-04-24T23:56:51.282Z,6.25
2023-04-24T23:59:20.786Z,5.75
